宮崎空港の過去48時間の天気

宮崎空港 (Miyazaki)

現在時刻: 9/16 12:05 JST (9/16 03:05 UTC) 以下の時間は現地時間です。

過去48時間のMETAR気象情報
時間 風向 風速(m/s) 視程 気温(℃) 湿度(%) 気圧(hPa) 天気現象
16 11:00 北東 4 10km以上 29 66 1003
16 10:00 北東 2 10km以上 29 62 1004
16 09:00 2 10km以上 28 66 1004
16 08:00 不定 1 10km以上 26 79 1004
16 07:00 西 3 10km以上 23 94 1004
16 06:10 西 3 10km以上 22 94 1004
15 21:00 不定 1 10km以上 25 83 1006
15 20:00 北北東 2 10km以上 26 84 1005
15 19:00 北東 2 10km以上 26 84 1005
15 18:00 北東 2 10km以上 27 74 1004
15 17:00 東北東 3 10km以上 28 70 1004
15 16:00 2 10km以上 28 70 1004
15 15:00 東北東 3 10km以上 28 70 1005
15 14:00 東北東 4 10km以上 28 74 1006
15 13:00 北東 5 10km以上 29 70 1006
15 12:00 北北東 5 10km以上 29 70 1007
15 11:00 北北東 6 10km以上 28 70 1008
15 10:00 北北東 7 10km以上 29 70 1008
15 09:00 北北東 6 10km以上 27 74 1008
15 08:00 5 10km以上 27 79 1008
15 07:00 4 10km以上 25 83 1008
14 21:00 北東 7 9000m 26 89 1009
14 20:27 北東 8 8000m 26 89 1009 弱いしゅう雨
14 20:15 北東 7 4500m 26 89 1009 しゅう雨 もや
14 20:00 北東 7 9000m 26 89 1009 周辺でしゅう雨
14 19:00 北東 8 9000m 26 89 1009 周辺でしゅう雨
14 18:00 北東 8 6000m 26 89 1008 弱いしゅう雨
14 17:00 北東 8 10km以上 27 84 1008 弱いしゅう雨
14 16:00 北東 9 10km以上 27 84 1008
14 15:00 北東 10 10km以上 27 84 1008
14 14:00 北東 9 10km以上 28 79 1008
14 13:00 北東 10 7000m 27 84 1008 周辺でしゅう雨
14 12:44 北東 9 5000m 26 89 1008 弱いしゅう雨 もや
RJFM 160200Z 05008KT 9999 FEW030 29/22 Q1003
RJFM 160100Z 05004KT 360V080 9999 FEW030 29/21 Q1004
RJFM 160000Z 01003KT 290V100 CAVOK 28/21 Q1004
RJFM 152300Z VRB02KT CAVOK 26/22 Q1004
RJFM 152200Z 28005KT 9999 FEW030 23/22 Q1004
RJFM 152110Z 28005KT 9999 FEW050 22/21 Q1004 RMK 1SC050 A2965
RJFM 151200Z VRB02KT 9999 FEW030 25/22 Q1006
RJFM 151100Z 02003KT 9999 FEW030 26/23 Q1005
RJFM 151000Z 05003KT 020V090 9999 FEW030 26/23 Q1005
RJFM 150900Z 04004KT 9999 FEW030 27/22 Q1004
RJFM 150800Z 07005KT 9999 FEW030 28/22 Q1004
RJFM 150700Z 08004KT 040V110 9999 FEW030 28/22 Q1004
RJFM 150600Z 07005KT 9999 FEW030 28/22 Q1005
RJFM 150500Z 06007KT 9999 FEW025 28/23 Q1006
RJFM 150400Z 04009KT 9999 FEW025 29/23 Q1006
RJFM 150300Z 03009KT 9999 FEW025 29/23 Q1007
RJFM 150200Z 03011KT 9999 FEW025 28/22 Q1008
RJFM 150100Z 02013KT 9999 FEW020 SCT025 29/23 Q1008
RJFM 150000Z 02012KT 9999 FEW015 SCT022 27/22 Q1008
RJFM 142300Z 01010KT 9999 FEW015 SCT025 27/23 Q1008
RJFM 142200Z 36007KT 9999 FEW015 BKN025 25/22 Q1008
RJFM 141200Z 04014KT 9000 FEW008 SCT020 BKN050 26/24 Q1009
RJFM 141127Z 04016KT 8000 -SHRA FEW008 BKN015 BKN020 26/24 Q1009 RMK 1ST008 5CU015 6CU020 A2981
RJFM 141115Z 04014KT 4500 SHRA BR FEW006 BKN014 BKN020 26/24 Q1009 RMK 1ST006 5CU014 6CU020 A2981
RJFM 141100Z 04014KT 9000 VCSH FEW006 BKN014 BKN020 26/24 Q1009
RJFM 141000Z 05015KT 9000 VCSH FEW006 BKN012 BKN020 26/24 Q1009
RJFM 140900Z 04016KT 6000 -SHRA FEW006 BKN015 BKN020 26/24 Q1008
RJFM 140800Z 04016KT 9999 -SHRA FEW008 BKN015 BKN020 27/24 Q1008
RJFM 140700Z 05017KT 9999 FEW010 BKN015 BKN040 27/24 Q1008
RJFM 140600Z 05019KT 9999 FEW007 SCT015 BKN035 27/24 Q1008
RJFM 140500Z 04017KT 9999 FEW007 SCT010 BKN020 28/24 Q1008
RJFM 140400Z 05020KT 7000 VCSH FEW007 SCT010 BKN019 27/24 Q1008
RJFM 140344Z 04017KT 5000 -SHRA BR FEW006 SCT010 BKN015 26/24 Q1008 RMK 2ST006 3ST010 5CU015 A2979